createdAt,value
2023-05-09T00:00:44.693Z,13.50
2023-05-09T00:01:44.710Z,13.38
2023-05-09T00:02:44.807Z,13.43
2023-05-09T00:03:44.748Z,13.43
2023-05-09T00:04:44.868Z,13.35
2023-05-09T00:05:44.816Z,13.32
2023-05-09T00:06:44.833Z,13.54
2023-05-09T00:07:44.940Z,13.41
2023-05-09T00:08:44.925Z,13.39
2023-05-09T00:09:44.937Z,13.38
2023-05-09T00:10:44.981Z,13.32
2023-05-09T00:11:45.016Z,13.41
2023-05-09T00:12:45.084Z,13.41
2023-05-09T00:13:45.073Z,13.41
2023-05-09T00:14:45.118Z,13.31
2023-05-09T00:15:45.233Z,13.44
2023-05-09T00:16:45.198Z,13.44
2023-05-09T00:17:45.205Z,13.44
2023-05-09T00:18:45.234Z,13.39
2023-05-09T00:19:45.258Z,13.29
2023-05-09T00:20:45.329Z,13.22
2023-05-09T00:21:45.330Z,13.22
2023-05-09T00:22:45.359Z,13.22
2023-05-09T00:23:45.390Z,13.16
2023-05-09T00:24:45.438Z,13.24
2023-05-09T00:25:45.490Z,13.13
2023-05-09T00:26:45.498Z,13.06
2023-05-09T00:27:45.517Z,13.16
2023-05-09T00:28:45.549Z,13.21
2023-05-09T00:29:45.587Z,13.25
2023-05-09T00:30:45.607Z,13.28
2023-05-09T00:31:45.822Z,13.31
2023-05-09T00:32:45.700Z,13.35
2023-05-09T00:33:45.709Z,13.38
2023-05-09T00:34:45.738Z,13.44
2023-05-09T00:35:45.769Z,13.36
2023-05-09T00:36:45.787Z,13.22
2023-05-09T00:37:45.834Z,13.16
2023-05-09T00:38:45.861Z,13.21
2023-05-09T00:39:45.890Z,13.24
2023-05-09T00:40:45.922Z,13.25
2023-05-09T00:41:45.961Z,13.21
2023-05-09T00:42:46.000Z,13.21
2023-05-09T00:43:46.023Z,13.04
2023-05-09T00:44:46.049Z,13.17
2023-05-09T00:45:46.127Z,13.13
2023-05-09T00:46:46.115Z,13.19
2023-05-09T00:47:46.330Z,13.12
2023-05-09T00:48:46.185Z,13.03
2023-05-09T00:49:46.222Z,12.95
2023-05-09T00:50:46.248Z,12.99
2023-05-09T00:51:46.261Z,12.96
2023-05-09T00:52:46.304Z,12.94
2023-05-09T00:53:46.334Z,12.91
2023-05-09T00:54:46.372Z,12.88
2023-05-09T00:55:46.390Z,12.92
2023-05-09T00:56:46.416Z,12.94
2023-05-09T00:57:46.456Z,12.92
2023-05-09T00:58:46.489Z,12.99
2023-05-09T00:59:46.536Z,12.95
2023-05-09T01:00:46.538Z,12.96
2023-05-09T01:01:46.629Z,13.06
2023-05-09T01:02:46.750Z,13.03
2023-05-09T01:03:46.983Z,13.01
2023-05-09T01:04:46.676Z,13.07
2023-05-09T01:05:46.703Z,13.06
2023-05-09T01:06:46.766Z,13.03
2023-05-09T01:07:46.772Z,12.96
2023-05-09T01:08:46.803Z,12.95
2023-05-09T01:09:46.842Z,12.92
2023-05-09T01:10:46.871Z,12.85
2023-05-09T01:11:46.906Z,12.88
2023-05-09T01:12:46.966Z,13.06
2023-05-09T01:13:46.981Z,12.91
2023-05-09T01:14:46.999Z,12.94
2023-05-09T01:15:47.079Z,12.92
2023-05-09T01:16:47.068Z,12.96
2023-05-09T01:17:47.147Z,12.92
2023-05-09T01:18:47.111Z,12.96
2023-05-09T01:19:47.240Z,13.01
2023-05-09T01:20:47.178Z,12.88
2023-05-09T01:21:47.212Z,12.92
2023-05-09T01:22:47.241Z,12.81
2023-05-09T01:23:47.277Z,12.87
2023-05-09T01:24:47.312Z,12.80
2023-05-09T01:25:47.326Z,12.89
2023-05-09T01:26:47.371Z,12.89
2023-05-09T01:27:47.401Z,12.84
2023-05-09T01:28:47.436Z,12.88
2023-05-09T01:29:47.479Z,12.79
2023-05-09T01:30:47.496Z,12.81
2023-05-09T01:31:47.601Z,12.80
2023-05-09T01:32:47.607Z,12.91
2023-05-09T01:33:47.589Z,12.91
2023-05-09T01:34:47.617Z,12.85
2023-05-09T01:35:47.749Z,12.76
2023-05-09T01:36:47.689Z,12.77
2023-05-09T01:37:47.721Z,12.67
2023-05-09T01:38:47.761Z,12.70
2023-05-09T01:39:47.787Z,12.80
2023-05-09T01:40:47.813Z,12.73
2023-05-09T01:41:47.845Z,12.89
2023-05-09T01:42:47.860Z,12.87
2023-05-09T01:43:47.951Z,12.85
2023-05-09T01:44:47.920Z,12.87
2023-05-09T01:45:47.969Z,12.84
2023-05-09T01:46:48.013Z,12.76
2023-05-09T01:47:48.103Z,12.59
2023-05-09T01:48:48.062Z,12.69
2023-05-09T01:49:48.082Z,12.70
2023-05-09T01:50:48.116Z,12.69
2023-05-09T01:51:48.246Z,12.76
2023-05-09T01:52:48.186Z,12.84
2023-05-09T01:53:48.221Z,12.70
2023-05-09T01:54:48.251Z,12.59
2023-05-09T01:55:48.280Z,12.67
2023-05-09T01:56:48.317Z,12.71
2023-05-09T01:57:48.337Z,12.77
2023-05-09T01:58:48.424Z,12.74
2023-05-09T01:59:48.392Z,12.79
2023-05-09T02:00:48.479Z,12.80
2023-05-09T02:01:48.511Z,12.71
2023-05-09T02:02:48.537Z,12.71
2023-05-09T02:03:48.525Z,12.59
2023-05-09T02:04:48.568Z,12.61
2023-05-09T02:05:48.583Z,12.63
2023-05-09T02:06:48.622Z,12.41
2023-05-09T02:07:48.768Z,12.58
2023-05-09T02:08:48.711Z,12.41
2023-05-09T02:09:48.711Z,12.41
2023-05-09T02:10:48.773Z,12.43
2023-05-09T02:11:48.776Z,12.43
2023-05-09T02:12:48.930Z,12.46
2023-05-09T02:13:48.831Z,12.40
2023-05-09T02:14:48.864Z,12.46
2023-05-09T02:15:48.918Z,12.52
2023-05-09T02:16:49.115Z,12.46
2023-05-09T02:17:48.971Z,12.31
2023-05-09T02:18:48.987Z,12.43
2023-05-09T02:19:49.026Z,12.31
2023-05-09T02:20:49.090Z,12.34
2023-05-09T02:21:49.066Z,12.41
2023-05-09T02:22:49.158Z,12.36
2023-05-09T02:23:49.227Z,12.38
2023-05-09T02:24:49.197Z,12.44
2023-05-09T02:25:49.187Z,12.30
2023-05-09T02:26:49.235Z,12.36
2023-05-09T02:27:49.271Z,12.31
2023-05-09T02:28:49.300Z,12.30
2023-05-09T02:29:49.338Z,12.23
2023-05-09T02:30:49.362Z,12.41
2023-05-09T02:31:49.431Z,12.46
2023-05-09T02:32:49.464Z,12.30
2023-05-09T02:33:49.452Z,12.33
2023-05-09T02:34:49.479Z,12.25
2023-05-09T02:35:49.560Z,12.34
2023-05-09T02:36:49.571Z,12.33
2023-05-09T02:37:49.572Z,12.25
2023-05-09T02:38:49.608Z,12.18
2023-05-09T02:39:49.745Z,12.15
2023-05-09T02:40:50.990Z,12.13
2023-05-09T02:41:49.703Z,12.21
2023-05-09T02:42:49.726Z,12.25
2023-05-09T02:43:49.758Z,12.25
2023-05-09T02:44:49.789Z,12.11
2023-05-09T02:45:49.841Z,12.12
2023-05-09T02:46:49.851Z,12.08
2023-05-09T02:47:49.919Z,12.18
2023-05-09T02:48:49.913Z,12.12
2023-05-09T02:49:49.970Z,12.11
2023-05-09T02:50:49.981Z,12.12
2023-05-09T02:51:49.998Z,12.07
2023-05-09T02:52:50.034Z,12.07
2023-05-09T02:53:50.084Z,12.03
2023-05-09T02:54:50.113Z,12.01
2023-05-09T02:55:50.220Z,11.98
2023-05-09T02:56:50.154Z,11.98
2023-05-09T02:57:56.193Z,12.05
2023-05-09T02:58:50.216Z,12.08
2023-05-09T02:59:50.234Z,12.12
2023-05-09T03:00:50.263Z,12.13
2023-05-09T03:01:50.415Z,12.04
2023-05-09T03:02:50.410Z,12.08
2023-05-09T03:03:50.415Z,12.16
2023-05-09T03:04:50.475Z,12.13
2023-05-09T03:05:50.426Z,12.07
2023-05-09T03:06:50.470Z,12.03
2023-05-09T03:07:50.507Z,12.05
2023-05-09T03:08:50.528Z,12.00
2023-05-09T03:09:50.547Z,12.01
2023-05-09T03:10:50.583Z,12.05
2023-05-09T03:11:50.723Z,12.03
2023-05-09T03:12:50.644Z,12.04
2023-05-09T03:13:50.673Z,12.13
2023-05-09T03:14:50.718Z,12.12
2023-05-09T03:15:50.746Z,12.11
2023-05-09T03:16:50.798Z,12.11
2023-05-09T03:17:50.824Z,12.05
2023-05-09T03:18:50.828Z,12.01
2023-05-09T03:19:50.873Z,11.90
2023-05-09T03:20:50.875Z,12.08
2023-05-09T03:21:50.919Z,12.04
2023-05-09T03:22:50.933Z,12.07
2023-05-09T03:23:50.964Z,12.05
2023-05-09T03:24:51.031Z,12.05
2023-05-09T03:25:51.047Z,12.04
2023-05-09T03:26:51.069Z,12.04
2023-05-09T03:27:51.200Z,11.96
2023-05-09T03:28:51.140Z,11.90
2023-05-09T03:29:51.240Z,11.96
2023-05-09T03:30:51.189Z,11.96
2023-05-09T03:31:51.253Z,11.87
2023-05-09T03:32:51.329Z,11.96
2023-05-09T03:33:51.284Z,11.93
2023-05-09T03:34:51.317Z,12.00
2023-05-09T03:35:51.341Z,12.00
2023-05-09T03:36:51.376Z,12.04
2023-05-09T03:37:51.426Z,12.04
2023-05-09T03:38:51.449Z,12.08
2023-05-09T03:39:51.456Z,12.16
2023-05-09T03:40:51.510Z,12.16
2023-05-09T03:41:51.531Z,12.13
2023-05-09T03:42:51.569Z,12.18
2023-05-09T03:43:51.673Z,12.21
2023-05-09T03:44:51.638Z,12.23
2023-05-09T03:45:51.663Z,12.21
2023-05-09T03:46:51.737Z,12.19
2023-05-09T03:47:51.761Z,12.21
2023-05-09T03:48:51.765Z,12.16
2023-05-09T03:49:51.784Z,12.11
2023-05-09T03:50:51.801Z,12.01
2023-05-09T03:51:51.857Z,12.08
2023-05-09T03:52:51.868Z,12.05
2023-05-09T03:53:51.910Z,12.08
2023-05-09T03:54:51.929Z,12.03
2023-05-09T03:55:51.972Z,12.08
2023-05-09T03:56:51.993Z,12.08
2023-05-09T03:57:52.044Z,12.08
2023-05-09T03:58:52.047Z,12.21
2023-05-09T03:59:52.175Z,12.18
2023-05-09T04:00:52.126Z,12.18
2023-05-09T04:01:52.139Z,12.22
2023-05-09T04:02:52.249Z,12.23
2023-05-09T04:03:52.247Z,12.25
2023-05-09T04:04:52.237Z,12.25
2023-05-09T04:05:52.268Z,12.36
2023-05-09T04:06:52.305Z,12.36
2023-05-09T04:07:52.331Z,12.34
2023-05-09T04:08:52.369Z,12.38
2023-05-09T04:09:52.392Z,12.25
2023-05-09T04:10:52.412Z,12.21
2023-05-09T04:11:52.457Z,12.23
2023-05-09T04:12:52.508Z,12.25
2023-05-09T04:13:52.546Z,12.31
2023-05-09T04:14:52.543Z,12.23
2023-05-09T04:15:52.678Z,12.36
2023-05-09T04:16:52.644Z,12.36
2023-05-09T04:17:52.685Z,12.43
2023-05-09T04:18:52.688Z,12.36
2023-05-09T04:19:52.700Z,12.25
2023-05-09T04:20:52.732Z,12.23
2023-05-09T04:21:52.766Z,12.21
2023-05-09T04:22:52.788Z,12.25
2023-05-09T04:23:52.823Z,12.13
2023-05-09T04:24:52.850Z,12.12
2023-05-09T04:25:52.891Z,12.16
2023-05-09T04:26:52.923Z,12.16
2023-05-09T04:29:07.387Z,12.16
2023-05-09T04:30:07.418Z,12.16
2023-05-09T04:32:11.641Z,12.12
2023-05-09T04:33:11.554Z,12.22
2023-05-09T04:35:16.840Z,12.19
2023-05-09T04:36:15.605Z,12.15
2023-05-09T04:38:19.672Z,12.16
2023-05-09T04:39:19.703Z,12.05
2023-05-09T04:41:12.860Z,12.13
2023-05-09T04:42:12.880Z,12.11
2023-05-09T04:44:18.451Z,12.15
2023-05-09T04:45:18.502Z,12.15
2023-05-09T04:46:18.518Z,12.16
2023-05-09T04:47:18.620Z,12.21
2023-05-09T04:48:18.566Z,12.22
2023-05-09T04:49:18.590Z,12.18
2023-05-09T04:50:18.622Z,12.19
2023-05-09T04:51:18.651Z,12.03
2023-05-09T04:52:18.684Z,12.07
2023-05-09T04:53:18.707Z,12.12
2023-05-09T04:54:18.744Z,12.04
2023-05-09T04:55:18.777Z,12.07
2023-05-09T04:56:18.805Z,12.18
2023-05-09T04:57:19.211Z,12.21
2023-05-09T04:58:18.859Z,12.21
2023-05-09T04:59:18.895Z,12.22
2023-05-09T05:00:18.929Z,12.25
2023-05-09T05:01:18.986Z,12.25
2023-05-09T05:02:18.992Z,12.30
2023-05-09T05:03:19.114Z,12.18
2023-05-09T05:04:19.072Z,12.26
2023-05-09T05:05:24.711Z,12.33
2023-05-09T05:06:19.116Z,12.41
2023-05-09T05:07:19.150Z,12.34
2023-05-09T05:08:19.161Z,12.48
2023-05-09T05:09:19.202Z,12.21
2023-05-09T05:10:19.242Z,12.23
2023-05-09T05:11:19.266Z,12.21
2023-05-09T05:12:19.303Z,12.21
2023-05-09T05:13:19.377Z,12.26
2023-05-09T05:14:19.360Z,12.37
2023-05-09T05:15:19.482Z,12.34
2023-05-09T05:16:19.443Z,12.23
2023-05-09T05:17:19.448Z,12.23
2023-05-09T05:18:19.488Z,12.36
2023-05-09T05:19:19.613Z,12.34
2023-05-09T05:20:19.537Z,12.46
2023-05-09T05:21:19.577Z,12.46
2023-05-09T05:22:19.605Z,12.40
2023-05-09T05:23:19.632Z,12.46
2023-05-09T05:24:19.670Z,12.43
2023-05-09T05:25:19.696Z,12.48
2023-05-09T05:26:19.725Z,12.44
2023-05-09T05:27:19.893Z,12.46
2023-05-09T05:28:19.782Z,12.59
2023-05-09T05:29:19.816Z,12.43
2023-05-09T05:30:19.849Z,12.26
2023-05-09T05:31:19.899Z,12.46
2023-05-09T05:32:19.910Z,12.38
2023-05-09T05:33:19.940Z,12.33
2023-05-09T05:34:19.964Z,12.41
2023-05-09T05:35:20.095Z,12.38
2023-05-09T05:36:20.030Z,12.44
2023-05-09T05:37:20.059Z,12.59
2023-05-09T05:38:20.093Z,12.55
2023-05-09T05:39:20.136Z,12.59
2023-05-09T05:40:20.162Z,12.73
2023-05-09T05:41:20.169Z,12.67
2023-05-09T05:42:20.220Z,12.74
2023-05-09T05:43:20.245Z,12.76
2023-05-09T05:44:20.286Z,12.74
2023-05-09T05:45:20.307Z,12.73
2023-05-09T05:46:20.406Z,12.73
2023-05-09T05:47:20.384Z,12.74
2023-05-09T05:48:20.386Z,12.58
2023-05-09T05:49:20.437Z,12.70
2023-05-09T05:50:20.467Z,12.73
2023-05-09T05:51:20.581Z,12.88
2023-05-09T05:52:20.519Z,12.87
2023-05-09T05:53:20.551Z,12.81
2023-05-09T05:54:20.580Z,12.95
2023-05-09T05:55:20.625Z,12.88
2023-05-09T05:56:20.648Z,12.88
2023-05-09T05:57:20.669Z,12.80
2023-05-09T05:58:20.719Z,12.77
2023-05-09T05:59:20.738Z,12.89
2023-05-09T06:00:20.800Z,12.85
2023-05-09T06:01:20.800Z,12.79
2023-05-09T06:02:20.895Z,12.87
2023-05-09T06:03:20.946Z,12.85
2023-05-09T06:04:20.927Z,12.94
2023-05-09T06:05:20.949Z,12.94
2023-05-09T06:06:20.963Z,12.95
2023-05-09T06:07:21.120Z,13.10
2023-05-09T06:08:21.023Z,13.04
2023-05-09T06:09:21.045Z,13.06
2023-05-09T06:10:21.079Z,13.13
2023-05-09T06:11:21.120Z,13.14
2023-05-09T06:12:21.139Z,13.16
2023-05-09T06:13:21.265Z,13.24
2023-05-09T06:14:21.207Z,13.24
2023-05-09T06:15:21.235Z,13.22
2023-05-09T06:16:21.446Z,13.32
2023-05-09T06:17:21.302Z,13.41
2023-05-09T06:18:21.314Z,13.38
2023-05-09T06:19:21.461Z,13.41
2023-05-09T06:20:21.387Z,13.41
2023-05-09T06:21:21.435Z,13.39
2023-05-09T06:22:21.455Z,13.44
2023-05-09T06:23:21.576Z,13.47
2023-05-09T06:24:34.470Z,13.47
2023-05-09T06:25:21.565Z,13.46
2023-05-09T06:26:21.605Z,13.59
2023-05-09T06:27:21.608Z,13.55
2023-05-09T06:28:21.658Z,13.55
2023-05-09T06:29:21.673Z,13.55
2023-05-09T06:30:26.457Z,13.62
2023-05-09T06:31:22.498Z,13.68
2023-05-09T06:32:21.768Z,13.79
2023-05-09T06:33:21.781Z,13.79
2023-05-09T06:34:21.843Z,13.83
2023-05-09T06:35:21.968Z,13.84
2023-05-09T06:36:21.890Z,13.81
2023-05-09T06:37:21.940Z,13.96
2023-05-09T06:38:21.959Z,13.94
2023-05-09T06:39:22.087Z,14.05
2023-05-09T06:40:22.024Z,13.93
2023-05-09T06:41:22.072Z,13.96
2023-05-09T06:42:22.078Z,14.06
2023-05-09T06:43:22.117Z,14.06
2023-05-09T06:44:22.137Z,14.11
2023-05-09T06:45:22.268Z,14.13
2023-05-09T06:46:22.231Z,14.12
2023-05-09T06:47:22.227Z,14.19
2023-05-09T06:48:22.260Z,14.27
2023-05-09T06:49:22.307Z,14.20
2023-05-09T06:50:22.332Z,14.27
2023-05-09T06:51:22.372Z,14.19
2023-05-09T06:52:22.400Z,14.24
2023-05-09T06:53:22.437Z,14.16
2023-05-09T06:54:22.457Z,14.24
2023-05-09T06:55:22.585Z,14.30
2023-05-09T06:56:22.532Z,14.27
2023-05-09T06:57:22.565Z,14.31
2023-05-09T06:58:22.621Z,14.44
2023-05-09T06:59:22.616Z,14.42
2023-05-09T07:00:22.650Z,14.45
2023-05-09T07:01:22.733Z,14.52
2023-05-09T07:02:22.746Z,14.66
2023-05-09T07:03:22.749Z,14.94
2023-05-09T07:04:22.783Z,15.00
2023-05-09T07:05:22.929Z,15.12
2023-05-09T07:06:22.839Z,15.22
2023-05-09T07:07:22.883Z,15.35
2023-05-09T07:08:22.913Z,15.55
2023-05-09T07:09:22.943Z,15.56
2023-05-09T07:10:22.962Z,15.56
2023-05-09T07:11:23.134Z,15.66
2023-05-09T07:12:23.026Z,15.73
2023-05-09T07:13:23.195Z,15.73
2023-05-09T07:14:23.126Z,15.68
2023-05-09T07:15:39.832Z,15.84
2023-05-09T07:16:23.244Z,15.93
2023-05-09T07:17:24.183Z,16.07
2023-05-09T07:18:23.219Z,16.01
2023-05-09T07:19:23.271Z,16.08
2023-05-09T07:20:23.298Z,16.13
2023-05-09T07:21:23.334Z,16.22
2023-05-09T07:22:23.362Z,16.13
2023-05-09T07:23:23.395Z,16.13
2023-05-09T07:24:23.416Z,16.08
2023-05-09T07:25:23.449Z,16.17
2023-05-09T07:26:23.489Z,16.22
2023-05-09T07:27:23.629Z,16.17
2023-05-09T07:28:23.562Z,16.25
2023-05-09T07:29:23.592Z,16.27
2023-05-09T07:30:23.630Z,16.22
2023-05-09T07:31:23.682Z,16.40
2023-05-09T07:32:23.804Z,16.42
2023-05-09T07:33:23.728Z,16.34
2023-05-09T07:34:23.752Z,16.37
2023-05-09T07:35:23.797Z,16.47
2023-05-09T07:36:23.824Z,16.52
2023-05-09T07:37:23.846Z,16.65
2023-05-09T07:38:23.880Z,16.77
2023-05-09T07:39:23.917Z,16.69
2023-05-09T07:40:23.950Z,16.73
2023-05-09T07:41:23.986Z,16.82
2023-05-09T07:42:24.019Z,16.70
2023-05-09T07:43:24.150Z,16.82
2023-05-09T07:44:24.085Z,16.88
2023-05-09T07:45:24.251Z,17.02
2023-05-09T07:46:24.194Z,17.10
2023-05-09T07:47:24.221Z,17.06
2023-05-09T07:48:24.226Z,17.24
2023-05-09T07:49:24.254Z,17.21
2023-05-09T07:50:24.276Z,17.05
2023-05-09T07:51:24.307Z,16.96
2023-05-09T07:52:24.355Z,17.00
2023-05-09T07:53:24.385Z,16.99
2023-05-09T07:54:24.417Z,16.98
2023-05-09T07:55:24.473Z,17.09
2023-05-09T07:56:24.481Z,17.15
2023-05-09T07:57:24.521Z,17.27
2023-05-09T07:58:24.542Z,17.27
2023-05-09T07:59:24.598Z,17.49
2023-05-09T08:00:24.616Z,17.71
2023-05-09T08:01:24.661Z,17.83
2023-05-09T08:02:24.784Z,17.91
2023-05-09T08:03:24.816Z,17.99
2023-05-09T08:04:24.806Z,18.04
2023-05-09T08:05:24.792Z,18.02
2023-05-09T08:06:24.818Z,18.19
2023-05-09T08:07:24.861Z,18.35
2023-05-09T08:08:24.890Z,18.31
2023-05-09T08:09:24.910Z,18.26
2023-05-09T08:10:24.960Z,18.31
2023-05-09T08:11:25.000Z,18.09
2023-05-09T08:12:25.024Z,18.05
2023-05-09T08:13:25.144Z,18.05
2023-05-09T08:14:25.090Z,18.05
2023-05-09T08:15:25.219Z,18.13
2023-05-09T08:16:25.205Z,18.09
2023-05-09T08:17:25.233Z,18.25
2023-05-09T08:18:25.223Z,18.26
2023-05-09T08:19:25.266Z,18.46
2023-05-09T08:20:25.309Z,18.29
2023-05-09T08:21:25.344Z,18.42
2023-05-09T08:22:25.366Z,18.47
2023-05-09T08:23:25.396Z,18.59
2023-05-09T08:24:25.444Z,18.62
2023-05-09T08:25:25.477Z,18.75
2023-05-09T08:26:25.517Z,18.83
2023-05-09T08:27:25.591Z,18.87
2023-05-09T08:28:25.588Z,18.71
2023-05-09T08:29:25.616Z,18.72
2023-05-09T08:30:25.646Z,18.68
2023-05-09T08:31:25.835Z,18.62
2023-05-09T08:32:25.719Z,18.74
2023-05-09T08:33:25.755Z,18.72
2023-05-09T08:34:25.782Z,18.75
2023-05-09T08:35:25.823Z,18.78
2023-05-09T08:36:25.861Z,18.74
2023-05-09T08:37:25.879Z,18.76
2023-05-09T08:38:25.913Z,18.76
2023-05-09T08:39:25.968Z,18.78
2023-05-09T08:40:26.000Z,18.79
2023-05-09T08:41:26.044Z,18.79
2023-05-09T08:42:26.649Z,18.84
2023-05-09T08:43:26.097Z,18.64
2023-05-09T08:44:26.147Z,18.53
2023-05-09T08:45:26.174Z,18.47
2023-05-09T08:46:26.221Z,18.60
2023-05-09T08:47:26.262Z,18.57
2023-05-09T08:48:26.268Z,18.75
2023-05-09T08:49:26.309Z,18.79
2023-05-09T08:50:26.349Z,18.86
2023-05-09T08:51:26.382Z,18.86
2023-05-09T08:52:26.417Z,18.87
2023-05-09T08:53:26.453Z,18.86
2023-05-09T08:54:26.485Z,18.72
2023-05-09T08:55:26.511Z,18.76
2023-05-09T08:56:26.537Z,18.79
2023-05-09T08:57:26.577Z,18.84
2023-05-09T08:58:26.656Z,19.02
2023-05-09T08:59:26.654Z,19.06
2023-05-09T09:00:26.688Z,19.01
2023-05-09T09:01:26.765Z,18.89
2023-05-09T09:02:26.787Z,18.87
2023-05-09T09:03:26.907Z,19.02
2023-05-09T09:04:26.933Z,19.07
2023-05-09T09:05:40.818Z,19.13
2023-05-09T09:06:26.895Z,19.16
2023-05-09T09:07:27.377Z,19.28
2023-05-09T09:08:26.951Z,19.30
2023-05-09T09:09:27.000Z,19.42
2023-05-09T09:10:27.043Z,19.55
2023-05-09T09:11:27.068Z,19.64
2023-05-09T09:12:27.106Z,19.68
2023-05-09T09:13:27.188Z,19.76
2023-05-09T09:14:27.173Z,19.79
2023-05-09T09:15:27.201Z,19.80
2023-05-09T09:16:27.269Z,19.79
2023-05-09T09:17:27.297Z,19.87
2023-05-09T09:18:27.317Z,19.71
2023-05-09T09:19:27.445Z,19.62
2023-05-09T09:20:27.375Z,19.39
2023-05-09T09:21:27.429Z,19.52
2023-05-09T09:22:27.451Z,19.60
2023-05-09T09:23:27.480Z,19.61
2023-05-09T09:24:27.534Z,19.58
2023-05-09T09:25:27.561Z,19.50
2023-05-09T09:26:27.585Z,19.67
2023-05-09T09:27:27.625Z,19.68
2023-05-09T09:28:27.671Z,19.79
2023-05-09T09:29:27.710Z,20.04
2023-05-09T09:30:27.774Z,20.05
2023-05-09T09:31:27.804Z,20.15
2023-05-09T09:32:27.887Z,20.15
2023-05-09T09:33:27.843Z,20.20
2023-05-09T09:34:27.882Z,20.40
2023-05-09T09:35:28.010Z,20.42
2023-05-09T09:36:27.951Z,20.57
2023-05-09T09:37:27.981Z,20.69
2023-05-09T09:38:28.002Z,20.75
2023-05-09T09:39:28.056Z,20.76
2023-05-09T09:40:28.104Z,20.79
2023-05-09T09:41:28.111Z,20.96
2023-05-09T09:42:28.161Z,20.97
2023-05-09T09:43:28.208Z,20.97
2023-05-09T09:44:28.235Z,20.98
2023-05-09T09:45:28.272Z,20.87
2023-05-09T09:46:28.348Z,21.01
2023-05-09T09:47:28.379Z,20.97
2023-05-09T09:48:28.377Z,21.09
2023-05-09T09:49:28.422Z,21.18
2023-05-09T09:50:28.447Z,21.24
2023-05-09T09:51:28.576Z,21.38
2023-05-09T09:52:28.528Z,21.37
2023-05-09T09:53:28.578Z,21.33
2023-05-09T09:54:28.599Z,21.42
2023-05-09T09:55:28.626Z,21.48
2023-05-09T09:56:28.661Z,21.30
2023-05-09T09:57:28.705Z,21.42
2023-05-09T09:58:28.736Z,21.40
2023-05-09T09:59:28.796Z,21.61
2023-05-09T10:00:28.827Z,21.86
2023-05-09T10:01:28.897Z,21.90
2023-05-09T10:02:28.912Z,22.05
2023-05-09T10:03:28.937Z,22.14
2023-05-09T10:04:28.931Z,22.21
2023-05-09T10:05:29.037Z,22.27
2023-05-09T10:06:29.066Z,22.46
2023-05-09T10:07:29.151Z,22.46
2023-05-09T10:08:29.123Z,22.38
2023-05-09T10:09:29.139Z,22.27
2023-05-09T10:10:29.180Z,22.27
2023-05-09T10:11:29.196Z,22.38
2023-05-09T10:12:29.240Z,22.39
2023-05-09T10:13:29.339Z,22.41
2023-05-09T10:14:29.312Z,22.57
2023-05-09T10:15:33.466Z,22.59
2023-05-09T10:16:42.548Z,22.72
2023-05-09T10:17:29.559Z,22.74
2023-05-09T10:18:29.795Z,22.88
2023-05-09T10:19:29.501Z,22.97
2023-05-09T10:20:29.521Z,22.94
2023-05-09T10:21:29.561Z,23.04
2023-05-09T10:22:29.604Z,23.09
2023-05-09T10:23:29.730Z,22.99
2023-05-09T10:24:29.680Z,22.99
2023-05-09T10:25:29.709Z,23.04
2023-05-09T10:26:29.739Z,23.06
2023-05-09T10:27:29.797Z,22.96
2023-05-09T10:28:29.808Z,22.94
2023-05-09T10:29:29.856Z,23.03
2023-05-09T10:30:30.305Z,23.03
2023-05-09T10:31:30.010Z,23.03
2023-05-09T10:32:29.983Z,23.06
2023-05-09T10:33:30.025Z,23.00
2023-05-09T10:34:30.053Z,23.07
2023-05-09T10:35:30.147Z,23.15
2023-05-09T10:36:30.099Z,23.37
2023-05-09T10:37:31.575Z,23.45
2023-05-09T10:38:30.185Z,23.45
2023-05-09T10:39:30.255Z,23.62
2023-05-09T10:40:30.293Z,23.45
2023-05-09T10:41:30.298Z,23.52
2023-05-09T10:42:30.336Z,23.63
2023-05-09T10:43:31.172Z,23.63
2023-05-09T10:44:30.410Z,23.42
2023-05-09T10:45:30.452Z,23.42
2023-05-09T10:46:30.504Z,23.59
2023-05-09T10:47:30.568Z,23.15
2023-05-09T10:48:30.561Z,22.74
2023-05-09T10:49:30.590Z,22.48
2023-05-09T10:50:30.629Z,22.36
2023-05-09T10:51:30.663Z,22.48
2023-05-09T10:52:30.712Z,22.41
2023-05-09T10:53:30.760Z,22.42
2023-05-09T10:54:31.174Z,22.02
2023-05-09T10:55:30.907Z,21.73
2023-05-09T10:56:30.852Z,22.06
2023-05-09T10:57:30.881Z,22.29
2023-05-09T10:58:30.911Z,22.54
2023-05-09T10:59:30.949Z,22.59
2023-05-09T11:00:31.005Z,22.61
2023-05-09T11:01:31.077Z,22.70
2023-05-09T11:02:31.152Z,22.97
2023-05-09T11:03:31.215Z,23.03
2023-05-09T11:04:31.154Z,22.12
2023-05-09T11:05:31.184Z,21.86
2023-05-09T11:06:31.228Z,21.93
2023-05-09T11:07:31.265Z,22.15
2023-05-09T11:08:31.316Z,22.41
2023-05-09T11:09:31.335Z,22.60
2023-05-09T11:10:31.367Z,22.85
2023-05-09T11:11:31.526Z,23.07
2023-05-09T11:12:31.446Z,23.21
2023-05-09T11:13:31.533Z,23.39
2023-05-09T11:14:31.524Z,23.52
2023-05-09T11:15:31.557Z,23.67
2023-05-09T11:16:31.691Z,23.09
2023-05-09T11:17:31.635Z,22.56
2023-05-09T11:18:31.666Z,22.70
2023-05-09T11:19:31.704Z,22.97
2023-05-09T11:20:31.737Z,22.94
2023-05-09T11:21:31.782Z,22.51
2023-05-09T11:22:31.805Z,22.46
2023-05-09T11:23:31.841Z,22.63
2023-05-09T11:24:31.877Z,22.54
2023-05-09T11:25:31.922Z,22.38
2023-05-09T11:26:31.961Z,22.02
2023-05-09T11:27:32.138Z,21.91
2023-05-09T11:28:32.063Z,21.58
2023-05-09T11:29:32.071Z,21.81
2023-05-09T11:30:32.108Z,22.04
2023-05-09T11:31:32.189Z,22.12
2023-05-09T11:32:32.261Z,22.33
2023-05-09T11:33:32.260Z,22.36
2023-05-09T11:34:32.263Z,22.60
2023-05-09T11:35:32.398Z,22.89
2023-05-09T11:36:32.347Z,23.04
2023-05-09T11:37:32.371Z,23.39
2023-05-09T11:38:32.414Z,23.60
2023-05-09T11:39:32.445Z,23.60
2023-05-09T11:40:32.487Z,23.69
2023-05-09T11:41:32.520Z,23.77
2023-05-09T11:42:32.566Z,23.82
2023-05-09T11:43:32.685Z,23.99
2023-05-09T11:44:32.632Z,24.02
2023-05-09T11:45:32.676Z,23.93
2023-05-09T11:46:32.789Z,23.93
2023-05-09T11:47:32.830Z,23.90
2023-05-09T11:48:32.842Z,23.69
2023-05-09T11:49:32.807Z,23.59
2023-05-09T11:50:32.889Z,23.59
2023-05-09T11:51:32.878Z,23.44
2023-05-09T11:52:32.961Z,23.35
2023-05-09T11:53:32.964Z,23.11
2023-05-09T11:54:33.007Z,22.97
2023-05-09T11:55:33.042Z,23.19
2023-05-09T11:56:33.077Z,23.41
2023-05-09T11:57:33.128Z,23.44
2023-05-09T11:58:33.155Z,23.32
2023-05-09T11:59:33.295Z,23.38
2023-05-09T12:00:33.256Z,23.23
2023-05-09T12:01:33.258Z,23.32
2023-05-09T12:02:33.422Z,23.11
2023-05-09T12:03:33.408Z,23.31
2023-05-09T12:04:33.413Z,22.97
2023-05-09T12:05:33.391Z,22.78
2023-05-09T12:06:33.441Z,22.64
2023-05-09T12:07:33.484Z,22.59
2023-05-09T12:08:33.528Z,22.82
2023-05-09T12:09:33.541Z,23.07
2023-05-09T12:10:33.590Z,23.34
2023-05-09T12:11:33.666Z,23.63
2023-05-09T12:12:33.665Z,23.89
2023-05-09T12:13:33.742Z,23.97
2023-05-09T12:14:33.745Z,24.15
2023-05-09T12:15:33.875Z,24.30
2023-05-09T12:16:33.884Z,24.46
2023-05-09T12:17:33.881Z,24.59
2023-05-09T12:18:33.891Z,24.75
2023-05-09T12:19:33.924Z,24.77
2023-05-09T12:20:33.952Z,24.61
2023-05-09T12:21:34.001Z,24.24
2023-05-09T12:22:34.037Z,24.11
2023-05-09T12:23:34.070Z,24.14
2023-05-09T12:24:34.110Z,24.08
2023-05-09T12:25:34.148Z,24.18
2023-05-09T12:26:34.187Z,24.29
2023-05-09T12:27:34.219Z,24.37
2023-05-09T12:28:34.254Z,24.55
2023-05-09T12:29:34.297Z,24.74
2023-05-09T12:30:34.338Z,24.97
2023-05-09T12:31:34.496Z,25.14
2023-05-09T12:32:34.521Z,25.19
2023-05-09T12:33:34.452Z,24.84
2023-05-09T12:34:34.492Z,24.56
2023-05-09T12:35:34.518Z,24.74
2023-05-09T12:36:34.650Z,24.84
2023-05-09T12:37:34.602Z,24.93
2023-05-09T12:38:34.671Z,25.09
2023-05-09T12:39:34.677Z,25.23
2023-05-09T12:40:34.713Z,25.29
2023-05-09T12:41:41.553Z,25.26
2023-05-09T12:42:34.794Z,25.14
2023-05-09T12:43:34.834Z,25.04
2023-05-09T12:44:34.869Z,25.07
2023-05-09T12:45:34.905Z,24.99
2023-05-09T12:46:35.838Z,25.11
2023-05-09T12:47:35.073Z,25.17
2023-05-09T12:48:35.047Z,25.14
2023-05-09T12:49:35.047Z,25.11
2023-05-09T12:50:35.094Z,25.19
2023-05-09T12:51:35.152Z,25.22
2023-05-09T12:52:35.370Z,25.22
2023-05-09T12:53:35.206Z,25.34
2023-05-09T12:54:35.246Z,25.44
2023-05-09T12:55:35.309Z,25.36
2023-05-09T12:56:35.344Z,25.29
2023-05-09T12:57:35.358Z,25.23
2023-05-09T12:58:35.399Z,25.26
2023-05-09T12:59:35.439Z,25.35